Latest Weather Observations for Sydney Airport

IDN60801

Issued at 9:52 pm EDT Saturday 25 January 2020 (issued every 10 minutes, with the page automatically refreshed every 10 minutes)

About weather observations | Map of weather stations | Latest weather observations for NSW | Other Formats
Station Details ID: 066037 Name: SYDNEY AIRPORT AMO Lat: -33.95 Lon: 151.17 Height: 6.0 m
Data from the previous 72 hours. | See also: Recent months at Sydney Airport
Date/Time
EDT
Temp
°C
App
Temp
°C
Dew
Point
°C
Rel
Hum
%
Delta-T
°C
Wind Press
QNH
hPa
Press
MSL
hPa
Rain since
9am
mm
Dir  Spd
km/h
Gust
km/h
Spd
kts
Gust
kts
25/09:30pm 25.7 29.0 22.6 83 2.1 NE 9 11 5 6 1012.4 1012.4 0.2
25/09:00pm 26.2 29.6 22.7 81 2.4 NNE 9 11 5 6 1012.3 1012.3 0.2
25/08:30pm 26.2 28.8 22.7 81 2.4 NNE 13 19 7 10 1012.1 1012.1 0.2
25/08:00pm 26.4 28.1 23.1 82 2.2 NE 19 24 10 13 1012.2 1012.2 0.2
25/07:30pm 25.9 27.3 22.8 83 2.1 NE 20 30 11 16 1011.7 1011.7 0.2
25/07:00pm 26.2 27.0 23.1 83 2.1 NE 24 30 13 16 1011.6 1011.6 0.2
25/06:30pm 26.4 27.4 22.9 81 2.4 NE 22 28 12 15 1011.5 1011.5 0.2
25/06:00pm 26.5 27.6 23.0 81 2.4 NE 22 26 12 14 1011.6 1011.6 0.2
25/05:30pm 26.4 27.9 22.7 80 2.5 ENE 19 28 10 15 1011.6 1011.6 0.2
25/05:00pm 26.9 28.3 22.5 77 3.0 ENE 19 28 10 15 1011.8 1011.8 0.2
25/04:30pm 28.0 29.0 22.2 70 3.9 E 20 28 11 15 1011.9 1011.9 0.2
25/04:00pm 26.0 26.8 21.4 76 3.1 NE 19 24 10 13 1012.3 1012.3 0.2
25/03:30pm 27.2 26.9 21.9 73 3.6 NE 26 32 14 17 1012.6 1012.6 0.2
25/03:00pm 28.3 28.7 21.8 68 4.4 ENE 22 30 12 16 1012.8 1012.8 0.2
25/02:30pm 27.8 27.1 21.1 67 4.4 ENE 26 32 14 17 1013.1 1013.1 0.2
25/02:00pm 27.6 27.5 20.7 66 4.6 E 22 28 12 15 1013.3 1013.3 0.2
25/01:30pm 28.5 28.3 20.5 62 5.3 E 22 30 12 16 1013.5 1013.5 0.2
25/01:00pm 27.5 27.6 20.3 65 4.7 ENE 20 26 11 14 1014.1 1014.1 0.2
25/12:30pm 28.5 28.7 20.5 62 5.3 E 20 26 11 14 1014.4 1014.4 0.2
25/12:00pm 27.8 28.3 20.1 63 5.0 E 17 24 9 13 1014.7 1014.7 0.2
25/11:30am 27.6 28.4 19.9 63 5.0 ENE 15 22 8 12 1015.0 1015.0 0.2
25/11:00am 26.6 26.1 19.2 64 4.8 ENE 20 28 11 15 1015.2 1015.2 0.2
25/10:30am 28.0 29.4 19.5 60 5.5 ENE 11 19 6 10 1014.9 1014.9 0.2
25/10:00am 27.2 28.2 19.5 62 5.0 ENE 13 20 7 11 1015.0 1015.0 0.0
25/09:30am 25.9 25.9 19.8 69 4.0 NE 19 30 10 16 1015.1 1015.1 0.0
25/09:00am 25.4 25.3 19.5 70 3.8 NE 19 24 10 13 1015.1 1015.1 1.0
25/08:30am 25.1 25.6 19.2 70 3.8 NE 15 22 8 12 1014.8 1014.8 1.0
25/08:00am 24.9 25.2 19.5 72 3.5 ENE 17 24 9 13 1014.5 1014.5 1.0
25/07:30am 24.7 25.1 18.9 70 3.7 E 15 17 8 9 1014.3 1014.3 1.0
25/07:00am 24.3 24.9 18.5 70 3.7 E 13 17 7 9 1014.1 1014.1 1.0
25/06:30am 23.9 24.8 18.5 72 3.4 E 11 17 6 9 1013.9 1013.9 1.0
25/06:00am 23.8 24.3 19.3 76 2.9 E 15 19 8 10 1013.9 1013.9 1.0
25/05:30am 23.7 24.0 19.6 78 2.6 E 17 20 9 11 1013.5 1013.5 1.0
25/05:00am 23.5 23.1 19.4 78 2.6 E 20 26 11 14 1013.1 1013.1 1.0
25/04:30am 23.5 23.7 19.4 78 2.6 E 17 26 9 14 1012.9 1012.9 1.0
25/04:00am 23.7 23.7 19.8 79 2.5 E 19 26 10 14 1013.0 1013.0 1.0
25/03:30am 23.8 24.3 20.1 80 2.4 E 17 22 9 12 1013.0 1013.0 1.0
25/03:00am 23.7 24.1 19.8 79 2.5 E 17 22 9 12 1013.1 1013.1 1.0
25/02:30am 23.7 24.5 19.8 79 2.5 E 15 19 8 10 1013.3 1013.3 1.0
25/02:00am 23.6 24.0 19.9 80 2.4 E 17 22 9 12 1013.4 1013.4 1.0
25/01:30am 23.6 23.9 19.7 79 2.5 E 17 26 9 14 1013.7 1013.7 1.0
25/01:00am 23.7 23.7 20.2 81 2.3 E 20 28 11 15 1013.6 1013.6 1.0
25/12:30am 23.8 24.5 20.5 82 2.1 ESE 17 26 9 14 1013.7 1013.7 1.0
25/12:00am 23.6 24.4 20.7 84 1.9 E 17 22 9 12 1013.7 1013.7 1.0
 
Date/Time
EDT
Temp
°C
App
Temp
°C
Dew
Point
°C
Rel
Hum
%
Delta-T
°C
Wind Press
QNH
hPa
Press
MSL
hPa
Rain since
9am
mm
Dir  Spd
km/h
Gust
km/h
Spd
kts
Gust
kts
24/11:30pm 23.2 24.1 20.9 87 1.5 E 17 24 9 13 1013.8 1013.8 1.0
24/11:00pm 23.0 24.3 20.9 88 1.4 E 15 20 8 11 1013.9 1013.9 1.0
24/10:30pm 23.2 23.5 20.3 84 1.9 E 19 26 10 14 1014.0 1014.0 1.0
24/10:16pm 23.1 24.3 20.6 86 1.6 E 15 22 8 12 1014.1 1014.1 0.8
24/10:00pm 23.3 23.9 20.2 83 2.0 E 17 26 9 14 1013.9 1013.9 0.8
24/09:30pm 24.6 24.7 19.9 75 3.0 ESE 19 26 10 14 1013.3 1013.3 0.8
24/09:00pm 24.9 25.2 19.7 73 3.4 ESE 17 24 9 13 1012.8 1012.8 0.8
24/08:30pm 24.5 24.8 19.6 74 3.2 E 17 26 9 14 1012.0 1012.0 0.8
24/08:00pm 24.7 25.0 19.5 73 3.3 E 17 20 9 11 1011.5 1011.5 0.8
24/07:30pm 24.9 25.2 19.7 73 3.4 E 17 22 9 12 1011.0 1011.0 0.8
24/07:00pm 24.6 24.4 19.7 74 3.2 ESE 20 28 11 15 1010.5 1010.5 0.8
24/06:30pm 25.0 24.4 20.5 76 2.9 E 24 30 13 16 1009.9 1009.9 0.8
24/06:00pm 25.2 24.0 20.0 73 3.4 E 26 30 14 16 1009.8 1009.8 0.8
24/05:30pm 25.4 24.7 19.5 70 3.8 E 22 30 12 16 1009.1 1009.1 0.8
24/05:00pm 25.5 25.0 19.9 71 3.6 E 22 30 12 16 1009.1 1009.1 0.8
24/04:30pm 25.8 26.5 20.4 72 3.5 E 17 22 9 12 1009.1 1009.1 0.8
24/04:00pm 26.3 27.1 19.9 68 4.2 SSE 15 19 8 10 1009.4 1009.4 0.8
24/03:30pm 23.9 26.2 19.8 78 2.6 ESE 7 13 4 7 1009.6 1009.6 0.8
24/03:00pm 23.4 25.9 19.8 80 2.3 SSE 6 11 3 6 1009.9 1009.9 0.8
24/02:30pm 22.2 24.3 19.0 82 2.0 ENE 6 11 3 6 1010.3 1010.3 0.8
24/02:00pm 22.9 24.5 18.2 75 2.9 SSE 7 11 4 6 1010.2 1010.2 0.8
24/01:30pm 22.6 23.5 19.2 81 2.2 S 13 15 7 8 1010.6 1010.6 0.8
24/01:00pm 22.6 23.5 19.2 81 2.2 S 13 15 7 8 1010.9 1010.9 0.8
24/12:30pm 22.5 22.1 18.9 80 2.3 S 19 24 10 13 1011.2 1011.2 0.8
24/12:00pm 23.1 22.5 18.8 77 2.7 SSW 20 26 11 14 1011.0 1011.0 0.8
24/11:30am 23.1 22.9 18.4 75 3.0 SSW 17 32 9 17 1011.2 1011.2 0.8
24/11:00am 21.9 21.1 17.9 78 2.5 SSW 19 28 10 15 1011.1 1011.1 0.8
24/10:30am 22.6 21.9 18.6 78 2.5 SSW 20 28 11 15 1010.5 1010.5 0.4
24/10:15am 22.3 20.7 19.1 82 2.0 SSW 26 32 14 17 1010.7 1010.7 0.4
24/10:00am 22.6 20.7 19.4 82 2.0 SSW 28 37 15 20 1010.3 1010.3 0.2
24/09:30am 22.6 21.8 20.1 86 1.6 S 24 32 13 17 1010.1 1010.1 0.2
24/09:00am 22.6 21.7 19.8 84 1.8 SSW 24 32 13 17 1009.8 1009.8 0.0
24/08:30am 23.0 21.0 19.2 79 2.4 S 28 33 15 18 1009.8 1009.8 0.0
24/08:00am 23.5 22.1 18.8 75 3.0 S 24 30 13 16 1009.0 1009.0 0.0
24/07:30am 24.2 24.1 17.9 68 3.9 SSE 15 20 8 11 1008.6 1008.6 0.0
24/07:00am 24.2 24.7 19.3 74 3.1 S 15 20 8 11 1008.3 1008.3 0.0
24/06:30am 24.4 24.7 19.5 74 3.1 SSE 17 24 9 13 1007.4 1007.4 0.0
24/06:00am 23.7 23.2 20.0 80 2.4 SSE 22 28 12 15 1006.8 1006.8 0.0
24/05:30am 23.7 24.0 20.4 82 2.1 S 19 26 10 14 1006.2 1006.2 0.0
24/05:00am 24.3 23.7 19.8 76 2.9 SSE 22 30 12 16 1005.6 1005.6 0.0
24/04:30am 24.7 24.8 20.0 75 3.0 S 19 26 10 14 1004.9 1004.9 0.0
24/04:00am 25.1 24.8 19.2 70 3.8 S 19 28 10 15 1004.4 1004.4 0.0
24/03:30am 25.5 24.7 18.4 65 4.5 S 20 30 11 16 1004.0 1004.0 0.0
24/03:00am 27.0 23.5 17.5 56 6.0 S 32 41 17 22 1003.4 1003.4 0.0
24/02:30am 30.0 31.0 19.4 53 6.9 NW 13 17 7 9 1002.7 1002.7 0.0
24/02:00am 30.3 30.2 19.6 52 7.0 NW 19 24 10 13 1002.5 1002.5 0.0
24/01:30am 30.6 28.8 19.6 51 7.2 NNW 28 39 15 21 1002.5 1002.5 0.0
24/01:00am 30.8 29.0 19.5 51 7.4 NNW 28 39 15 21 1002.2 1002.2 0.0
24/12:30am 30.8 28.1 19.2 50 7.6 NNW 32 44 17 24 1002.3 1002.3 0.0
24/12:20am 31.1 29.2 19.4 49 7.7 NNW 28 48 15 26 1002.4 1002.4 0.0
24/12:00am 30.9 28.8 18.9 48 7.8 NNW 28 41 15 22 1002.4 1002.4 0.0
 
Date/Time
EDT
Temp
°C
App
Temp
°C
Dew
Point
°C
Rel
Hum
%
Delta-T
°C
Wind Press
QNH
hPa
Press
MSL
hPa
Rain since
9am
mm
Dir  Spd
km/h
Gust
km/h
Spd
kts
Gust
kts
23/11:30pm 30.7 28.5 18.8 49 7.7 N 28 39 15 21 1002.4 1002.4 0.0
23/11:00pm 32.0 28.0 18.6 45 8.7 N 37 57 20 31 1002.0 1002.0 0.0
23/10:45pm 33.0 32.5 18.7 42 9.3 NNE 19 43 10 23 1001.6 1001.6 0.0
23/10:30pm 31.7 34.5 20.9 52 7.2 NNE 7 15 4 8 1001.3 1001.3 0.0
23/10:00pm 31.8 32.8 22.2 56 6.6 NNE 20 28 11 15 1001.2 1001.2 0.0
23/09:30pm 30.0 34.7 21.9 62 5.5 CALM 0 7 0 4 1000.4 1000.4 0.0
23/09:00pm 30.2 31.7 21.3 59 6.0 NE 15 19 8 10 1000.2 1000.2 0.0
23/08:30pm 31.4 32.6 20.7 53 7.1 NE 15 19 8 10 999.7 999.7 0.0
23/08:00pm 31.2 32.3 20.5 53 7.1 NE 15 24 8 13 999.3 999.3 0.0
23/07:30pm 31.5 34.6 21.1 54 7.0 NE 6 9 3 5 999.1 999.1 0.0
23/07:00pm 32.0 32.8 20.6 51 7.6 N 17 32 9 17 998.7 998.7 0.0
23/06:30pm 31.1 29.2 21.3 56 6.6 NNE 33 43 18 23 997.8 997.8 0.0
23/06:00pm 32.4 30.1 20.6 49 7.9 NE 33 43 18 23 997.5 997.5 0.0
23/05:30pm 33.7 31.2 19.7 43 9.3 NE 32 39 17 21 997.5 997.5 0.0
23/05:00pm 33.8 30.3 18.7 40 9.9 NE 35 44 19 24 997.5 997.5 0.0
23/04:44pm 36.7 33.5 15.2 27 13.5 NNE 26 46 14 25 997.6 997.6 0.0
23/04:38pm 42.0 35.7 9.0 14 19.4 NNW 32 46 17 25 997.4 997.4 0.0
23/04:35pm 41.3 33.7 7.4 13 19.4 NNW 37 56 20 30 997.4 997.4 0.0
23/04:30pm 41.5 32.6 7.5 13 19.5 NNW 44 56 24 30 997.3 997.3 0.0
23/04:09pm 41.4 33.0 7.4 13 19.5 NNW 41 59 22 32 997.4 997.4 0.0
23/04:00pm 41.7 33.0 7.7 13 19.7 NNW 43 54 23 29 997.4 997.4 0.0
23/03:45pm 41.8 33.6 6.6 12 19.9 NNW 39 59 21 32 997.4 997.4 0.0
23/03:30pm 42.5 34.7 8.3 13 19.9 NNW 39 56 21 30 997.7 997.7 0.0
23/03:00pm 42.4 33.2 8.2 13 20.0 NNW 46 65 25 35 998.2 998.2 0.0
23/02:30pm 42.0 33.3 7.9 13 19.7 NNW 43 67 23 36 998.6 998.6 0.0
23/02:00pm 42.3 33.4 7.0 12 20.3 NNW 43 61 23 33 999.1 999.1 0.0
23/01:30pm 41.8 31.9 6.6 12 19.9 NNW 48 69 26 37 999.4 999.4 0.0
23/01:00pm 41.1 32.0 8.3 14 19.1 NNW 46 69 25 37 1000.0 1000.0 0.0
23/12:34pm 40.8 31.0 7.0 13 19.2 NNW 48 67 26 36 1000.3 1000.3 0.0
23/12:30pm 40.3 31.0 7.7 14 18.6 NNW 46 61 25 33 1000.4 1000.4 0.0
23/12:11pm 40.1 31.6 8.5 15 18.3 NNW 43 61 23 33 1000.7 1000.7 0.0
23/12:00pm 39.6 29.7 8.1 15 18.1 NNW 50 63 27 34 1000.8 1000.8 0.0
23/11:41am 39.0 32.6 9.5 17 17.2 NNW 33 56 18 30 1001.0 1001.0 0.0
23/11:30am 38.5 33.2 13.0 22 15.6 NNW 33 46 18 25 1001.3 1001.3 0.0
23/11:00am 37.6 33.8 14.8 25 14.3 N 28 39 15 21 1001.6 1001.6 0.0
23/10:30am 35.9 32.0 15.6 30 12.8 N 30 41 16 22 1002.0 1002.0 0.0
23/10:00am 34.4 30.4 15.3 31 12.0 N 30 41 16 22 1002.1 1002.1 0.0
23/09:30am 33.3 29.3 15.3 34 11.2 NNW 30 39 16 21 1002.6 1002.6 0.0
23/09:00am 32.4 27.8 15.0 35 10.8 NNW 33 50 18 27 1003.0 1003.0 0.0
23/08:30am 31.1 29.3 15.5 39 9.6 NW 19 30 10 16 1003.3 1003.3 0.0
23/08:00am 29.4 28.4 15.5 43 8.6 NW 15 20 8 11 1002.9 1002.9 0.0
23/07:30am 26.4 26.4 16.3 53 6.2 WNW 11 15 6 8 1003.1 1003.1 0.0
23/07:00am 25.5 25.4 14.9 52 6.4 NW 9 17 5 9 1003.3 1003.3 0.0
23/06:30am 24.1 24.1 15.3 58 5.3 NNW 9 11 5 6 1003.3 1003.3 0.0
23/06:00am 23.2 23.3 15.5 62 4.6 N 9 13 5 7 1003.4 1003.4 0.0
23/05:30am 24.0 23.3 15.5 59 5.1 NNW 13 13 7 7 1003.4 1003.4 0.0
23/05:00am 23.8 24.6 17.3 67 4.0 NNW 9 11 5 6 1003.5 1003.5 0.0
23/04:30am 23.4 25.2 18.3 73 3.2 NNE 6 13 3 7 1003.8 1003.8 0.0
23/04:00am 23.1 24.9 18.2 74 3.1 NNE 6 11 3 6 1003.6 1003.6 0.0
23/03:30am 23.1 24.4 18.4 75 3.0 NE 9 11 5 6 1003.7 1003.7 0.0
23/03:00am 23.8 26.6 18.0 70 3.6 CALM 0 0 0 0 1003.8 1003.8 0.0
23/02:30am 23.8 26.3 17.3 67 4.0 CALM 0 4 0 2 1004.3 1004.3 0.0
23/02:00am 23.4 26.3 18.1 72 3.3 CALM 0 0 0 0 1004.7 1004.7 0.0
23/01:30am 24.9 27.0 16.3 59 5.3 CALM 0 0 0 0 1005.1 1005.1 0.0
23/01:00am 24.8 27.4 17.5 64 4.6 CALM 0 7 0 4 1005.4 1005.4 0.0
23/12:30am 26.1 28.3 16.6 55 5.9 CALM 0 0 0 0 1005.8 1005.8 0.0
23/12:00am 27.1 29.7 17.6 56 6.0 CALM 0 0 0 0 1006.1 1006.1 0.0
 
Date/Time
EDT
Temp
°C
App
Temp
°C
Dew
Point
°C
Rel
Hum
%
Delta-T
°C
Wind Press
QNH
hPa
Press
MSL
hPa
Rain since
9am
mm
Dir  Spd
km/h
Gust
km/h
Spd
kts
Gust
kts
22/11:30pm 27.3 30.6 19.1 61 5.3 CALM 0 6 0 3 1006.3 1006.3 0.0
22/11:00pm 27.2 29.9 20.3 66 4.5 NE 6 11 3 6 1006.5 1006.5 0.0
22/10:30pm 27.3 28.7 21.8 72 3.7 N 17 26 9 14 1006.5 1006.5 0.0
22/10:00pm 27.0 27.7 22.2 75 3.2 NNE 22 33 12 18 1006.1 1006.1 0.0

Other formats

Comma delimited format used in spreadsheet applications
http://www.bom.gov.au/fwo/IDN60801/IDN60801.94767.axf

JavaScript Object Notation format (JSON) in row-major order
http://www.bom.gov.au/fwo/IDN60801/IDN60801.94767.json

Data quality

Most of these data are generated automatically and are frequently updated. Quality checks on data are not normally performed. It is possible for incorrect values to appear. Refer to information at About Latest Weather Observations and please check the disclaimer before using these data.